Weather at Albuquerque International Sunport

Public forecast

Using degrees Fahrenheit for public forecast. Weather courtesy of forecast.io.

Current aviation weather report (METAR) for Albuquerque International Sunport

2024/02/24 09:52 (retrieved 33 minutes ago)

KABQ 240952Z 00000KT 10SM CLR 01/M12 A3022 RMK AO2 SLP215 T00061117

Aviation forecast (TAF) for Albuquerque International Sunport

2024/02/24 06:27 (retrieved 4 hours ago)

TAF KABQ 240524Z 2406/2506 01007KT P6SM SCT200 FM241900 26006KT P6SM SCT160 FM250200 VRB05KT P6SM SCT200